createdAt,value
2022-08-19T00:00:28.414Z,79.88
2022-08-19T00:03:01.691Z,80.21
2022-08-19T00:05:35.326Z,81.07
2022-08-19T00:08:09.788Z,81.13
2022-08-19T00:10:42.865Z,81.73
2022-08-19T00:13:16.692Z,82.25
2022-08-19T00:15:49.755Z,82.08
2022-08-19T00:18:22.985Z,82.35
2022-08-19T00:20:56.441Z,82.85
2022-08-19T00:23:31.185Z,83.53
2022-08-19T00:26:05.358Z,83.52
2022-08-19T00:28:39.100Z,83.38
2022-08-19T00:31:12.951Z,83.24
2022-08-19T00:33:46.188Z,82.98
2022-08-19T00:36:21.843Z,83.22
2022-08-19T00:38:56.616Z,82.94
2022-08-19T00:41:30.366Z,81.48
2022-08-19T00:44:07.059Z,82.55
2022-08-19T00:46:42.995Z,82.02
2022-08-19T00:49:21.475Z,82.52
2022-08-19T00:52:00.315Z,82.29
2022-08-19T00:54:35.767Z,81.58
2022-08-19T00:57:14.187Z,81.38
2022-08-19T01:00:02.290Z,81.99
2022-08-19T01:02:35.898Z,80.57
2022-08-19T01:05:13.970Z,79.93
2022-08-19T01:07:47.663Z,79.78
2022-08-19T01:10:26.581Z,80.11
2022-08-19T01:13:02.420Z,80.31
2022-08-19T01:15:41.227Z,80.40
2022-08-19T01:18:19.388Z,79.19
2022-08-19T01:20:54.233Z,80.03
2022-08-19T01:23:43.533Z,79.78
2022-08-19T01:26:22.436Z,78.94
2022-08-19T01:29:02.000Z,78.59
2022-08-19T01:31:35.184Z,78.67
2022-08-19T01:34:09.265Z,78.92
2022-08-19T01:36:46.612Z,80.20
2022-08-19T01:39:24.337Z,80.43
2022-08-19T01:41:57.422Z,81.40
2022-08-19T01:47:04.689Z,82.76
2022-08-19T01:49:38.851Z,82.42
2022-08-19T01:52:11.955Z,83.03
2022-08-19T01:54:46.496Z,83.20
2022-08-19T01:57:19.673Z,82.86
2022-08-19T01:59:52.804Z,83.12
2022-08-19T02:02:26.081Z,83.87
2022-08-19T02:04:59.595Z,83.84
2022-08-19T02:07:33.815Z,83.23
2022-08-19T02:10:13.402Z,83.92
2022-08-19T02:12:50.347Z,84.04
2022-08-19T02:15:23.829Z,84.81
2022-08-19T02:17:57.062Z,85.26
2022-08-19T02:20:30.154Z,85.06
2022-08-19T02:23:03.293Z,85.95
2022-08-19T02:25:37.964Z,85.95
2022-08-19T02:28:11.070Z,86.05
2022-08-19T02:30:44.444Z,86.27
2022-08-19T02:33:18.362Z,86.82
2022-08-19T02:35:51.452Z,87.30
2022-08-19T02:38:26.593Z,87.94
2022-08-19T02:41:04.143Z,88.25
2022-08-19T02:43:38.067Z,88.34
2022-08-19T02:46:22.195Z,89.91
2022-08-19T02:48:58.939Z,89.97
2022-08-19T02:51:35.625Z,90.19
2022-08-19T02:54:10.856Z,90.12
2022-08-19T02:56:46.847Z,90.05
2022-08-19T02:59:22.900Z,90.13
2022-08-19T03:01:56.311Z,90.40
2022-08-19T03:04:30.391Z,90.16
2022-08-19T03:07:10.687Z,90.06
2022-08-19T03:09:44.918Z,90.86
2022-08-19T03:12:19.339Z,90.32
2022-08-19T03:14:53.650Z,89.96
2022-08-19T03:17:26.802Z,89.86
2022-08-19T03:20:00.062Z,89.90
2022-08-19T03:22:33.173Z,90.42
2022-08-19T03:25:07.485Z,90.46
2022-08-19T03:27:41.993Z,90.52
2022-08-19T03:30:15.811Z,90.09
2022-08-19T03:32:56.978Z,90.13
2022-08-19T03:35:30.551Z,90.65
2022-08-19T03:38:03.615Z,90.66
2022-08-19T03:40:39.396Z,90.94
2022-08-19T03:43:20.027Z,91.00
2022-08-19T03:46:03.465Z,90.79
2022-08-19T03:48:37.724Z,90.77
2022-08-19T03:51:19.074Z,90.68
2022-08-19T03:54:07.752Z,90.48
2022-08-19T03:56:43.421Z,90.53
2022-08-19T03:59:27.426Z,90.21
2022-08-19T04:02:05.042Z,90.67
2022-08-19T04:04:39.361Z,90.40
2022-08-19T04:07:17.036Z,90.00
2022-08-19T04:09:51.446Z,90.40
2022-08-19T04:12:24.664Z,90.55
2022-08-19T04:14:59.333Z,90.35
2022-08-19T04:17:32.685Z,90.79
2022-08-19T04:20:07.236Z,91.12
2022-08-19T04:22:40.450Z,91.07
2022-08-19T04:25:13.859Z,91.02
2022-08-19T04:27:47.418Z,91.60
2022-08-19T04:30:23.527Z,92.87
2022-08-19T04:32:56.698Z,92.76
2022-08-19T04:35:29.766Z,92.94
2022-08-19T04:38:02.858Z,92.80
2022-08-19T04:40:53.930Z,93.72
2022-08-19T04:43:27.182Z,93.83
2022-08-19T04:46:07.588Z,94.24
2022-08-19T04:48:49.242Z,95.04
2022-08-19T04:51:22.434Z,95.63
2022-08-19T04:53:55.636Z,95.12
2022-08-19T04:56:29.740Z,94.36
2022-08-19T04:59:05.210Z,94.22
2022-08-19T05:01:39.690Z,94.23
2022-08-19T05:04:13.992Z,93.92
2022-08-19T05:06:48.134Z,93.83
2022-08-19T05:09:22.588Z,93.33
2022-08-19T05:11:55.658Z,92.96
2022-08-19T05:14:29.897Z,93.00
2022-08-19T05:17:26.122Z,93.38
2022-08-19T05:20:16.130Z,93.06
2022-08-19T05:22:49.955Z,93.61
2022-08-19T05:25:25.204Z,93.61
2022-08-19T05:27:58.275Z,93.85
2022-08-19T05:30:46.493Z,93.71
2022-08-19T05:33:22.529Z,93.66
2022-08-19T05:35:56.957Z,93.25
2022-08-19T05:38:31.049Z,93.38
2022-08-19T05:41:09.706Z,93.13
2022-08-19T05:43:42.991Z,93.20
2022-08-19T05:46:27.796Z,93.17
2022-08-19T05:49:02.632Z,93.53
2022-08-19T05:51:38.303Z,94.17
2022-08-19T05:54:14.338Z,94.19
2022-08-19T05:56:48.733Z,94.75
2022-08-19T05:59:24.918Z,95.16
2022-08-19T06:01:58.121Z,96.41
2022-08-19T06:04:32.627Z,96.93
2022-08-19T06:07:12.748Z,97.12
2022-08-19T06:10:00.552Z,97.44
2022-08-19T06:12:36.018Z,97.87
2022-08-19T06:15:13.140Z,97.68
2022-08-19T06:17:46.426Z,97.98
2022-08-19T06:20:39.859Z,98.14
2022-08-19T06:23:16.248Z,98.19
2022-08-19T06:25:50.294Z,98.64
2022-08-19T06:28:24.625Z,99.32
2022-08-19T06:30:57.728Z,99.65
2022-08-19T06:33:30.778Z,99.91
2022-08-19T06:36:06.897Z,100.00
2022-08-19T06:38:39.950Z,100.00
2022-08-19T06:41:13.067Z,100.00
2022-08-19T06:43:46.151Z,100.00
2022-08-19T06:46:20.698Z,99.70
2022-08-19T06:48:55.282Z,99.76
2022-08-19T06:51:30.267Z,99.83
2022-08-19T06:54:18.983Z,99.68
2022-08-19T06:56:52.860Z,99.21
2022-08-19T06:59:28.437Z,99.09
2022-08-19T07:02:06.511Z,99.45
2022-08-19T07:04:42.562Z,99.44
2022-08-19T07:07:21.136Z,99.24
2022-08-19T07:10:00.864Z,98.83
2022-08-19T07:12:36.049Z,98.78
2022-08-19T07:15:13.160Z,97.58
2022-08-19T07:17:46.266Z,97.25
2022-08-19T07:20:23.324Z,97.90
2022-08-19T07:23:03.133Z,97.64
2022-08-19T07:25:41.226Z,97.06
2022-08-19T07:28:24.536Z,97.80
2022-08-19T07:30:58.097Z,99.25
2022-08-19T07:33:33.528Z,98.61
2022-08-19T07:36:12.148Z,98.05
2022-08-19T07:38:50.735Z,97.88
2022-08-19T07:41:27.171Z,97.74
2022-08-19T07:44:04.493Z,97.86
2022-08-19T07:46:42.019Z,97.81
2022-08-19T07:49:20.318Z,98.24
2022-08-19T07:51:57.024Z,98.08
2022-08-19T07:54:35.173Z,97.28
2022-08-19T07:57:08.977Z,97.30
2022-08-19T07:59:42.419Z,96.80
2022-08-19T08:02:15.499Z,95.66
2022-08-19T08:05:05.909Z,96.59
2022-08-19T08:07:56.455Z,94.90
2022-08-19T08:10:31.019Z,95.82
2022-08-19T08:13:09.090Z,95.98
2022-08-19T08:15:45.483Z,96.41
2022-08-19T08:18:19.725Z,96.92
2022-08-19T08:20:52.846Z,97.07
2022-08-19T08:23:27.354Z,97.24
2022-08-19T08:26:03.085Z,96.88
2022-08-19T08:28:36.129Z,96.62
2022-08-19T08:31:10.286Z,96.81
2022-08-19T08:33:43.758Z,96.90
2022-08-19T08:36:16.970Z,96.97
2022-08-19T08:38:50.320Z,97.03
2022-08-19T08:41:37.110Z,96.89
2022-08-19T08:44:20.187Z,96.95
2022-08-19T08:47:00.394Z,96.42
2022-08-19T08:49:44.201Z,96.57
2022-08-19T08:52:23.673Z,96.98
2022-08-19T08:55:03.208Z,97.12
2022-08-19T08:57:56.685Z,96.95
2022-08-19T09:00:34.973Z,96.73
2022-08-19T09:03:18.528Z,96.46
2022-08-19T09:06:02.039Z,96.72
2022-08-19T09:08:50.295Z,96.19
2022-08-19T09:11:42.375Z,96.21
2022-08-19T09:14:52.359Z,96.64
2022-08-19T09:17:31.905Z,96.10
2022-08-19T09:20:15.049Z,96.21
2022-08-19T09:22:50.132Z,96.64
2022-08-19T09:25:29.411Z,97.02
2022-08-19T09:28:05.705Z,96.22
2022-08-19T09:30:47.040Z,95.91
2022-08-19T09:33:20.953Z,95.58
2022-08-19T09:36:08.445Z,96.25
2022-08-19T09:38:43.715Z,95.91
2022-08-19T09:41:20.279Z,96.29
2022-08-19T09:43:56.986Z,96.29
2022-08-19T09:46:32.593Z,95.97
2022-08-19T09:49:07.179Z,95.03
2022-08-19T09:51:40.275Z,94.56
2022-08-19T09:54:14.172Z,94.21
2022-08-19T09:56:56.415Z,94.03
2022-08-19T09:59:30.211Z,94.17
2022-08-19T10:02:10.893Z,94.18
2022-08-19T10:05:01.861Z,95.03
2022-08-19T10:07:36.334Z,93.92
2022-08-19T10:10:11.742Z,93.23
2022-08-19T10:12:48.892Z,92.19
2022-08-19T10:15:29.242Z,91.92
2022-08-19T10:18:04.077Z,90.92
2022-08-19T10:20:38.623Z,89.80
2022-08-19T10:23:11.768Z,87.80
2022-08-19T10:25:45.203Z,87.00
2022-08-19T10:28:19.090Z,86.14
2022-08-19T10:30:52.893Z,86.40
2022-08-19T10:33:53.182Z,86.01
2022-08-19T10:36:24.514Z,86.19
2022-08-19T10:39:02.375Z,86.48
2022-08-19T10:41:38.275Z,86.57
2022-08-19T10:44:14.241Z,86.14
2022-08-19T10:46:48.931Z,86.14
2022-08-19T10:49:25.286Z,85.54
2022-08-19T10:52:19.407Z,85.39
2022-08-19T10:55:11.476Z,85.22
2022-08-19T10:58:03.889Z,85.45
2022-08-19T11:00:37.728Z,85.09
2022-08-19T11:03:11.097Z,85.22
2022-08-19T11:05:45.487Z,85.05
2022-08-19T11:08:22.537Z,84.49
2022-08-19T11:10:58.439Z,85.17
2022-08-19T11:13:36.159Z,84.75
2022-08-19T11:16:14.247Z,85.08
2022-08-19T11:18:50.870Z,85.36
2022-08-19T11:21:28.777Z,85.32
2022-08-19T11:24:07.574Z,85.30
2022-08-19T11:26:42.743Z,86.06
2022-08-19T11:29:16.158Z,86.19
2022-08-19T11:31:51.654Z,87.25
2022-08-19T11:34:29.225Z,89.34
2022-08-19T11:37:05.279Z,91.49
2022-08-19T11:39:39.353Z,93.38
2022-08-19T11:42:30.450Z,95.07
2022-08-19T11:45:04.039Z,97.27
2022-08-19T11:47:37.547Z,98.88
2022-08-19T11:50:10.925Z,100.00
2022-08-19T11:52:45.982Z,100.00
2022-08-19T11:55:20.778Z,100.00
2022-08-19T11:57:54.034Z,100.00
2022-08-19T12:00:27.542Z,100.00
2022-08-19T12:03:00.606Z,100.00
2022-08-19T12:05:33.974Z,100.00
2022-08-19T12:08:10.127Z,100.00
2022-08-19T12:10:43.693Z,100.00
2022-08-19T12:13:19.538Z,100.00
2022-08-19T12:15:54.130Z,100.00
2022-08-19T12:18:27.563Z,100.00
2022-08-19T12:21:01.458Z,100.00
2022-08-19T12:23:37.728Z,100.00
2022-08-19T12:26:12.516Z,100.00
2022-08-19T12:28:46.887Z,100.00
2022-08-19T12:31:20.612Z,100.00
2022-08-19T12:33:54.466Z,100.00
2022-08-19T12:36:27.655Z,100.00
2022-08-19T12:39:02.143Z,100.00
2022-08-19T12:41:35.187Z,100.00
2022-08-19T12:44:16.343Z,100.00
2022-08-19T12:46:53.829Z,100.00
2022-08-19T12:49:52.354Z,100.00
2022-08-19T12:52:23.207Z,100.00
2022-08-19T12:54:59.163Z,100.00
2022-08-19T12:57:34.171Z,100.00
2022-08-19T13:00:12.391Z,100.00
2022-08-19T13:02:48.300Z,100.00
2022-08-19T13:05:24.606Z,100.00
2022-08-19T13:08:00.594Z,100.00
2022-08-19T13:10:37.983Z,100.00
2022-08-19T13:13:12.379Z,100.00
2022-08-19T13:15:46.247Z,100.00
2022-08-19T13:18:19.363Z,100.00
2022-08-19T13:20:53.146Z,100.00
2022-08-19T13:23:26.316Z,100.00
2022-08-19T13:26:03.739Z,100.00
2022-08-19T13:28:55.105Z,100.00
2022-08-19T13:31:48.636Z,100.00
2022-08-19T13:34:30.800Z,100.00
2022-08-19T13:37:06.114Z,100.00
2022-08-19T13:39:39.465Z,100.00
2022-08-19T13:42:14.874Z,100.00
2022-08-19T13:44:48.737Z,100.00
2022-08-19T13:47:21.907Z,100.00
2022-08-19T13:49:55.140Z,100.00
2022-08-19T13:52:28.392Z,100.00
2022-08-19T13:55:01.498Z,100.00
2022-08-19T13:57:37.024Z,100.00
2022-08-19T14:00:14.940Z,100.00
2022-08-19T14:02:49.369Z,100.00
2022-08-19T14:05:23.237Z,100.00
2022-08-19T14:07:57.334Z,100.00
2022-08-19T14:10:32.442Z,100.00
2022-08-19T14:13:06.931Z,100.00
2022-08-19T14:15:40.607Z,100.00
2022-08-19T14:18:13.980Z,100.00
2022-08-19T14:20:47.605Z,100.00
2022-08-19T14:23:21.023Z,100.00
2022-08-19T14:26:00.762Z,100.00
2022-08-19T14:28:37.827Z,100.00
2022-08-19T14:31:11.342Z,100.00
2022-08-19T14:33:44.561Z,100.00
2022-08-19T14:36:18.166Z,100.00
2022-08-19T14:38:51.293Z,100.00
2022-08-19T14:41:25.775Z,100.00
2022-08-19T14:44:01.312Z,100.00
2022-08-19T14:46:34.581Z,100.00
2022-08-19T14:49:09.397Z,100.00
2022-08-19T14:51:42.785Z,100.00
2022-08-19T14:54:16.236Z,100.00
2022-08-19T14:56:49.789Z,100.00
2022-08-19T14:59:24.477Z,100.00
2022-08-19T15:01:57.607Z,100.00
2022-08-19T15:04:33.671Z,100.00
2022-08-19T15:07:07.095Z,100.00
2022-08-19T15:09:40.612Z,100.00
2022-08-19T15:12:13.731Z,100.00
2022-08-19T15:14:56.946Z,100.00
2022-08-19T15:17:43.475Z,100.00
2022-08-19T15:20:23.660Z,100.00
2022-08-19T15:22:56.934Z,100.00
2022-08-19T15:25:30.479Z,100.00
2022-08-19T15:28:04.280Z,100.00
2022-08-19T15:30:40.277Z,100.00
2022-08-19T15:33:15.171Z,100.00
2022-08-19T15:35:50.899Z,100.00
2022-08-19T15:38:25.822Z,100.00
2022-08-19T15:41:19.116Z,100.00
2022-08-19T15:43:55.815Z,100.00
2022-08-19T15:46:33.119Z,100.00
2022-08-19T15:49:08.214Z,100.00
2022-08-19T15:51:44.052Z,100.00
2022-08-19T15:54:21.470Z,100.00
2022-08-19T15:57:12.028Z,100.00
2022-08-19T16:00:03.418Z,100.00
2022-08-19T16:02:55.607Z,100.00
2022-08-19T16:05:48.818Z,100.00
2022-08-19T16:08:21.878Z,100.00
2022-08-19T16:10:54.974Z,100.00
2022-08-19T16:13:28.071Z,100.00
2022-08-19T16:16:01.425Z,100.00
2022-08-19T16:18:38.274Z,100.00
2022-08-19T16:21:11.383Z,100.00
2022-08-19T16:23:46.552Z,100.00
2022-08-19T16:26:21.177Z,100.00
2022-08-19T16:28:54.295Z,100.00
2022-08-19T16:31:28.860Z,100.00
2022-08-19T16:34:03.602Z,100.00
2022-08-19T16:36:37.078Z,100.00
2022-08-19T16:39:11.387Z,100.00
2022-08-19T16:41:46.807Z,100.00
2022-08-19T16:44:21.124Z,100.00
2022-08-19T16:46:58.730Z,100.00
2022-08-19T16:49:53.817Z,100.00
2022-08-19T16:52:27.021Z,100.00
2022-08-19T16:55:00.199Z,100.00
2022-08-19T16:57:39.619Z,100.00
2022-08-19T17:00:14.840Z,100.00
2022-08-19T17:02:47.960Z,100.00
2022-08-19T17:05:22.884Z,100.00
2022-08-19T17:07:55.975Z,100.00
2022-08-19T17:10:29.086Z,100.00
2022-08-19T17:13:02.192Z,100.00
2022-08-19T17:15:35.741Z,100.00
2022-08-19T17:18:12.899Z,100.00
2022-08-19T17:20:47.905Z,100.00
2022-08-19T17:23:23.215Z,100.00
2022-08-19T17:26:18.915Z,100.00
2022-08-19T17:28:54.805Z,100.00
2022-08-19T17:31:31.268Z,100.00
2022-08-19T17:34:04.586Z,100.00
2022-08-19T17:36:39.196Z,100.00
2022-08-19T17:39:12.309Z,100.00
2022-08-19T17:41:45.378Z,100.00
2022-08-19T17:44:18.873Z,100.00
2022-08-19T17:46:53.489Z,100.00
2022-08-19T17:49:26.769Z,100.00
2022-08-19T17:52:01.371Z,100.00
2022-08-19T17:54:34.518Z,100.00
2022-08-19T17:57:08.471Z,100.00
2022-08-19T17:59:41.971Z,100.00
2022-08-19T18:02:15.790Z,100.00
2022-08-19T18:04:53.601Z,100.00
2022-08-19T18:07:28.131Z,100.00
2022-08-19T18:10:02.189Z,100.00
2022-08-19T18:12:36.625Z,100.00
2022-08-19T18:15:11.402Z,100.00
2022-08-19T18:17:45.557Z,100.00
2022-08-19T18:20:19.531Z,100.00
2022-08-19T18:22:54.003Z,100.00
2022-08-19T18:25:29.385Z,100.00
2022-08-19T18:28:02.922Z,100.00
2022-08-19T18:30:37.261Z,100.00
2022-08-19T18:33:14.214Z,100.00
2022-08-19T18:35:53.173Z,100.00
2022-08-19T18:38:45.439Z,100.00
2022-08-19T18:41:36.447Z,100.00
2022-08-19T18:44:28.523Z,100.00
2022-08-19T18:47:19.682Z,100.00
2022-08-19T18:49:52.794Z,100.00
2022-08-19T18:52:27.263Z,100.00
2022-08-19T18:55:01.853Z,100.00
2022-08-19T18:57:35.822Z,100.00
2022-08-19T19:00:12.536Z,100.00
2022-08-19T19:02:46.792Z,100.00
2022-08-19T19:05:21.033Z,100.00
2022-08-19T19:07:54.592Z,100.00
2022-08-19T19:10:29.147Z,100.00
2022-08-19T19:13:02.323Z,100.00
2022-08-19T19:15:36.964Z,100.00
2022-08-19T19:18:10.532Z,100.00
2022-08-19T19:20:44.163Z,100.00
2022-08-19T19:23:17.269Z,100.00
2022-08-19T19:25:53.274Z,100.00
2022-08-19T19:28:29.217Z,100.00
2022-08-19T19:31:02.311Z,100.00
2022-08-19T19:33:35.419Z,100.00
2022-08-19T19:36:09.282Z,100.00
2022-08-19T19:38:48.348Z,100.00
2022-08-19T19:41:25.877Z,100.00
2022-08-19T19:44:29.464Z,100.00
2022-08-19T19:46:57.747Z,100.00
2022-08-19T19:49:32.526Z,100.00
2022-08-19T19:52:07.584Z,100.00
2022-08-19T19:54:47.694Z,100.00
2022-08-19T19:57:23.524Z,100.00
2022-08-19T19:59:56.756Z,100.00
2022-08-19T20:02:29.942Z,100.00
2022-08-19T20:05:03.143Z,100.00
2022-08-19T20:07:54.194Z,100.00
2022-08-19T20:10:27.987Z,100.00
2022-08-19T20:13:04.499Z,100.00
2022-08-19T20:15:43.361Z,100.00
2022-08-19T20:18:17.107Z,100.00
2022-08-19T20:20:50.852Z,100.00
2022-08-19T20:23:25.143Z,100.00
2022-08-19T20:25:58.415Z,100.00
2022-08-19T20:28:32.995Z,100.00
2022-08-19T20:31:06.471Z,100.00
2022-08-19T20:33:39.630Z,100.00
2022-08-19T20:36:12.769Z,100.00
2022-08-19T20:38:45.875Z,100.00
2022-08-19T20:41:20.716Z,100.00
2022-08-19T20:43:55.163Z,100.00
2022-08-19T20:46:29.026Z,100.00
2022-08-19T20:49:02.430Z,100.00
2022-08-19T20:51:39.244Z,100.00
2022-08-19T20:54:12.535Z,100.00
2022-08-19T20:56:45.627Z,100.00
2022-08-19T20:59:21.090Z,100.00
2022-08-19T21:01:55.015Z,100.00
2022-08-19T21:04:28.163Z,100.00
2022-08-19T21:07:02.070Z,100.00
2022-08-19T21:09:35.830Z,100.00
2022-08-19T21:12:12.291Z,100.00
2022-08-19T21:14:48.177Z,100.00
2022-08-19T21:17:22.189Z,100.00
2022-08-19T21:19:55.318Z,100.00
2022-08-19T21:22:28.428Z,100.00
2022-08-19T21:25:01.580Z,100.00
2022-08-19T21:27:34.743Z,100.00
2022-08-19T21:30:11.654Z,100.00
2022-08-19T21:32:47.296Z,100.00
2022-08-19T21:35:23.412Z,100.00
2022-08-19T21:37:57.483Z,100.00
2022-08-19T21:40:31.063Z,100.00
2022-08-19T21:43:06.498Z,100.00
2022-08-19T21:45:41.055Z,100.00
2022-08-19T21:48:15.439Z,100.00
2022-08-19T21:50:48.616Z,100.00
2022-08-19T21:53:22.990Z,100.00
2022-08-19T21:55:56.235Z,100.00
2022-08-19T21:58:30.732Z,100.00
2022-08-19T22:01:07.943Z,100.00
2022-08-19T22:03:41.258Z,100.00
2022-08-19T22:06:14.351Z,100.00
2022-08-19T22:08:47.781Z,100.00
2022-08-19T22:11:21.174Z,100.00
2022-08-19T22:13:56.248Z,100.00
2022-08-19T22:16:30.767Z,100.00
2022-08-19T22:19:03.885Z,100.00
2022-08-19T22:21:40.187Z,100.00
2022-08-19T22:24:14.232Z,100.00
2022-08-19T22:26:47.348Z,100.00
2022-08-19T22:29:20.441Z,100.00
2022-08-19T22:32:26.845Z,100.00
2022-08-19T22:35:01.344Z,100.00
2022-08-19T22:37:34.950Z,100.00
2022-08-19T22:40:10.115Z,100.00
2022-08-19T22:42:43.380Z,100.00
2022-08-19T22:45:19.102Z,100.00
2022-08-19T22:47:53.534Z,100.00
2022-08-19T22:50:27.395Z,100.00
2022-08-19T22:53:02.607Z,100.00
2022-08-19T22:55:38.049Z,100.00
2022-08-19T22:58:11.139Z,100.00
2022-08-19T23:00:44.274Z,100.00
2022-08-19T23:03:19.680Z,100.00
2022-08-19T23:05:52.833Z,100.00
2022-08-19T23:08:25.919Z,100.00
2022-08-19T23:10:59.098Z,100.00
2022-08-19T23:13:32.557Z,100.00
2022-08-19T23:16:06.439Z,100.00
2022-08-19T23:18:41.467Z,100.00
2022-08-19T23:21:14.823Z,100.00
2022-08-19T23:23:47.994Z,100.00
2022-08-19T23:26:21.375Z,100.00
2022-08-19T23:29:12.176Z,100.00
2022-08-19T23:31:45.233Z,100.00
2022-08-19T23:34:19.677Z,100.00
2022-08-19T23:36:52.780Z,100.00
2022-08-19T23:39:29.739Z,100.00
2022-08-19T23:42:02.990Z,100.00
2022-08-19T23:44:51.512Z,100.00
2022-08-19T23:47:25.795Z,100.00
2022-08-19T23:50:05.462Z,100.00
2022-08-19T23:52:46.537Z,100.00
2022-08-19T23:55:22.615Z,100.00
2022-08-19T23:57:56.198Z,100.00
